Terminal Aerodrome Forecast
Issued by NWS

Current Version | Previous Version | Text Only | Print | Product List | Glossary On
Versions: 1 2 3 4 5 6 7 8 9 10 11 12 13 14 15 16
000 FTUS41 KILN 291100 TAFLCK TAF KLCK 291126Z 2912/3012 17003KT P6SM SKC FM291400 18009KT P6SM SCT200 FM291700 18014G22KT P6SM BKN150 FM292300 19009KT P6SM -SHRA SCT050 OVC080 FM300700 21010KT P6SM VCSH SCT015 OVC025 FM301100 26010KT P6SM SCT025 SCT250=

USA.gov is the U.S. government's official web portal to all federal, state and local government web resources and services.